• Join FlightAware (Why Join?)
  • Login
  • US Flag 
03:37PM EST


 

Airport Tracker/Info


-or-


 

Live Flight TrackerFlight Track Log ✈ UAL4625 ✈ 23-Apr-2013 ✈ KCHS - KEWR

Flight Track Log - Related Links

Times and Time Zones

All times are in EDT time to prevent confusion due to time zone crossing. See the UAL4625 flight status page for this flight to view local times or setup timezone preferences in your user account.

Time Position Orientation Groundspeed Altitude Reporting Facility
EDT Latitude Longitude Course Direction KTS MPH feet Rate Location/Type
01:38PM 33.0558 -79.9903 13° North 259 298 6,000  Level Jacksonville Center
01:39PM 33.1431 -79.9500 North  Level FlightAware Approximate
01:39PM 33.1264 -79.9708 13° North 268 308 9,300  Level Jacksonville Center
01:40PM 33.2311 -79.9305 North  Level FlightAware Approximate
01:40PM 33.2011 -79.9483 14° North 273 314 10,900  Level Jacksonville Center
01:41PM 33.3187 -79.9073 23° Northeast  Level FlightAware Approximate
01:41PM 33.2944 -79.9231 13° North 300 345 11,900  Level Jacksonville Center
01:42PM 33.4043 -79.8758 North  Level FlightAware Approximate
01:42PM 33.3897 -79.8950 14° North 327 376 13,600  Level Jacksonville Center
01:43PM 33.4926 -79.8545 13° North  Level FlightAware Approximate
01:43PM 33.4892 -79.8667 13° North 350 403 15,100  Level Jacksonville Center
01:44PM 33.5803 -79.8295 13° North  Level FlightAware Approximate
01:44PM 33.5889 -79.8408 12° North 356 410 16,600  Level Jacksonville Center
01:45PM 33.6925 -79.8122 13° North 366 421 17,900 1,440 Climbing Jacksonville Center
01:46PM 33.7961 -79.7836 13° North 372 428 19,500 1,620 Climbing Jacksonville Center
01:47PM 33.8956 -79.7550 13° North 372 428 21,200 1,920 Climbing Jacksonville Center
01:48PM 33.9908 -79.7292 13° North 366 421 23,400 1,800 Climbing Jacksonville Center
01:49PM 34.0756 -79.6986 17° North 341 392 24,800 720 Climbing Jacksonville Center
01:50PM 34.1231 -79.6014 59° Northeast 302 348 24,900 60 Climbing Jacksonville Center
01:51PM 34.0478 -79.5117 135° Southeast 243 280 25,000  Climbing Jacksonville Center
01:52PM 33.9639 -79.5775 213° Southwest 195 224 25,000  Level Jacksonville Center
01:53PM 34.0136 -79.6456 311° West 127 146 25,100 600 Climbing Jacksonville Center
01:54PM 34.1036 -79.6522 356° North 203 234 26,300 1,260 Climbing Jacksonville Center
01:55PM 34.1933 -79.6542 359° North 272 313 27,600 1,080 Climbing Jacksonville Center
01:56PM 34.2728 -79.6561 359° North 288 331 28,500 420 Climbing Jacksonville Center
01:58PM 34.4661 -79.6475 North 345 397 29,000 120 Climbing Washington Center
01:59PM 34.5667 -79.6372 North 359 413 29,000  Level Washington Center
02:00PM 34.6753 -79.6300 North 371 427 29,000  Level Washington Center
02:01PM 34.7842 -79.6228 North 382 440 29,000  Level Washington Center
02:02PM 34.8906 -79.6181 North 387 445 29,000  Level Washington Center
02:03PM 34.9953 -79.6106 North 387 445 29,000 600 Level Washington Center
02:04PM 35.1019 -79.6031 North 382 440 30,300 1,200 Climbing Washington Center
02:05PM 35.1967 -79.5775 12° North 367 422 31,400 1,440 Climbing Washington Center
02:06PM 35.2844 -79.5131 31° Northeast 357 411 33,200 1,560 Climbing Washington Center
02:07PM 35.3697 -79.4561 29° Northeast 351 404 34,600 900 Climbing Washington Center
02:08PM 35.4572 -79.3914 31° Northeast 351 404 35,000 180 Climbing Washington Center
02:09PM 35.5556 -79.3194 31° Northeast 366 421 35,000  Level Washington Center
02:10PM 35.6347 -79.2569 33° Northeast 371 427 35,000  Level Washington Center
02:11PM 35.7328 -79.1897 29° Northeast 381 438 35,000  Level Washington Center
02:12PM 35.8267 -79.1197 31° Northeast 387 445 35,000  Level Washington Center
02:13PM 35.9206 -79.0494 31° Northeast 392 451 35,000  Level Washington Center
02:14PM 36.0164 -78.9792 31° Northeast 392 451 35,000  Level Washington Center
02:15PM 36.1100 -78.9086 31° Northeast 392 451 35,000  Level Washington Center
02:16PM 36.2144 -78.8333 30° Northeast 397 457 35,000  Level Washington Center
02:17PM 36.3125 -78.7600 31° Northeast 397 457 35,000  Level Washington Center
02:18PM 36.4061 -78.6889 31° Northeast 397 457 35,000  Level Washington Center
02:19PM 36.5039 -78.6153 31° Northeast 397 457 35,000  Level Washington Center
02:20PM 36.5975 -78.5464 31° Northeast 392 451 35,000  Level Washington Center
02:21PM 36.6783 -78.4797 33° Northeast 392 451 35,000  Level Washington Center
02:22PM 36.7803 -78.4031 31° Northeast 387 445 35,000  Level Washington Center
02:23PM 36.8736 -78.3336 31° Northeast 387 445 35,000  Level Washington Center
02:24PM 36.9672 -78.2617 32° Northeast 397 457 35,000 -420 Level Washington Center
02:25PM 37.0606 -78.1919 31° Northeast 392 451 34,200 -900 Descending Washington Center
02:26PM 37.1475 -78.1219 33° Northeast 387 445 33,200 -1,020 Descending Washington Center
02:27PM 37.2386 -78.0544 31° Northeast 382 440 32,200 -1,020 Descending Washington Center
02:28PM 37.3297 -77.9844 31° Northeast 382 440 31,200 -600 Descending Washington Center
02:29PM 37.4250 -77.9089 32° Northeast 389 448 31,000 -120 Descending Washington Center
02:31PM 37.6031 -77.7622 33° Northeast 389 448 31,000  Level Washington Center
02:32PM 37.6922 -77.6781 37° Northeast 389 448 31,000  Level Washington Center
02:33PM 37.7811 -77.5992 35° Northeast 389 448 31,000  Level Washington Center
02:34PM 37.8700 -77.5172 36° Northeast 389 448 31,000  Level Washington Center
02:35PM 37.9589 -77.4353 36° Northeast 389 448 31,000 -360 Level Washington Center
02:36PM 38.0286 -77.3711 36° Northeast 389 448 30,300 -900 Descending Washington Center
02:37PM 38.1428 -77.2708 35° Northeast 402 463 29,200 -660 Descending Washington Center
02:38PM 38.2356 -77.1831 37° Northeast 416 479 29,000 -120 Descending Washington Center
02:39PM 38.3242 -77.1056 34° Northeast 408 470 29,000  Level Washington Center
02:40PM 38.4278 -77.0044 37° Northeast 414 476 29,000  Level Washington Center
02:41PM 38.5267 -76.9158 35° Northeast 428 493 29,000  Level Washington Center
02:42PM 38.6256 -76.8194 37° Northeast 433 498 29,000  Level Washington Center
02:43PM 38.7225 -76.7253 37° Northeast 433 498 29,000  Level Washington Center
02:44PM 38.8153 -76.6200 41° Northeast 438 504 29,000 -300 Level Washington Center
02:45PM 38.9056 -76.5144 42° Northeast 438 504 28,400 -600 Descending Washington Center
02:46PM 38.9981 -76.4064 42° Northeast 438 504 27,900 -660 Descending Washington Center
02:47PM 39.0883 -76.3003 42° Northeast 438 504 27,100 -480 Descending Washington Center
02:48PM 39.1808 -76.1914 42° Northeast 444 511 27,000 -60 Descending Washington Center
02:49PM 39.2686 -76.0928 41° Northeast 449 517 27,000 -480 Level Washington Center
02:50PM 39.3608 -75.9861 42° Northeast 449 517 26,100 -900 Descending Washington Center
02:51PM 39.4528 -75.8764 43° Northeast 443 510 25,200 -600 Descending Washington Center
02:52PM 39.5447 -75.7664 43° Northeast 443 510 24,900 -600 Descending Washington Center
02:53PM 39.6364 -75.6617 41° Northeast 443 510 24,000 -960 Descending Washington Center
02:54PM 39.7239 -75.5564 43° Northeast 433 498 23,000 -1,260 Descending Washington Center
02:55PM 39.8072 -75.4564 43° Northeast 420 483 21,500 -2,460 Descending Washington Center
02:56PM 39.8864 -75.3589 43° Northeast 401 461 18,100 -3,240 Descending Washington Center
02:57PM 39.9653 -75.2639 43° Northeast 390 449 15,100 -2,400 Descending Washington Center
02:58PM 40.0358 -75.1769 43° Northeast 369 425 13,400 -1,740 Descending Washington Center
02:59PM 40.1000 -75.0978 43° Northeast 339 390 11,700 -1,260 Descending Washington Center
03:00PM 40.1642 -75.0186 43° Northeast 304 350 10,900 -360 Descending Washington Center
03:01PM 40.2139 -74.9558 44° Northeast 266 306 11,000  Climbing Washington Center
03:02PM 40.2636 -74.8956 43° Northeast 248 285 11,000  Level Washington Center
03:03PM 40.2506 -74.8278 104° East 173 199 11,000 -60 Level Washington Center
03:04PM 40.1906 -74.8719 209° Southwest 113 130 10,900  Descending Washington Center
03:05PM 40.1533 -74.9400 234° Southwest 166 191 11,000  Climbing Washington Center
03:06PM 40.2014 -74.9750 331° Northwest 112 129 11,000  Level Washington Center
03:07PM 40.2533 -74.9119 43° Northeast 124 143 11,000  Level Washington Center
03:08PM 40.2589 -74.8358 85° East 166 191 11,000  Level Washington Center
03:09PM 40.2092 -74.8744 211° Southwest 89 102 11,000 -120 Level Washington Center
03:10PM 40.2333 -74.9167 307° West 270 311 10,900 -840 Descending New York TRACON
03:11PM 40.3000 -74.8500 37° Northeast 283 326 9,700 -1,260 Descending New York TRACON
03:12PM 40.3333 -74.7667 62° Northeast 279 321 8,300 -1,380 Descending New York TRACON
03:13PM 40.3500 -74.6667 78° East 259 298 7,000 -1,320 Descending New York TRACON
03:14PM 40.3667 -74.5833 75° East 258 297 5,700 -1,320 Descending New York TRACON
03:15PM 40.4000 -74.5000 62° Northeast 242 278 4,400 -900 Descending New York TRACON
03:16PM 40.4167 -74.4167 75° East 236 272 4,000 -360 Descending New York TRACON
03:17PM 40.4500 -74.3500 57° Northeast 178 205 3,700 -480 Descending New York TRACON
03:18PM 40.4667 -74.3000 66° East 171 197 3,100 -360 Descending New York TRACON
03:19PM 40.5167 -74.2833 14° North 177 204 3,000 -180 Descending New York TRACON
03:20PM 40.5667 -74.2500 27° Northeast 177 204 2,800 -240 Descending New York TRACON